createdAt,value
2022-12-18T00:01:17.983Z,102837.16
2022-12-18T00:03:46.959Z,102830.78
2022-12-18T00:06:15.547Z,102832.31
2022-12-18T00:08:45.996Z,102823.38
2022-12-18T00:11:16.558Z,102816.31
2022-12-18T00:13:44.574Z,102812.66
2022-12-18T00:16:14.033Z,102810.34
2022-12-18T00:18:42.523Z,102816.94
2022-12-18T00:21:12.841Z,102823.03
2022-12-18T00:23:42.113Z,102827.41
2022-12-18T00:26:19.185Z,102831.63
2022-12-18T00:28:47.464Z,102829.31
2022-12-18T00:31:17.790Z,102829.19
2022-12-18T00:33:46.048Z,102829.72
2022-12-18T00:36:15.785Z,102815.16
2022-12-18T00:38:43.716Z,102818.41
2022-12-18T00:41:14.284Z,102813.09
2022-12-18T00:43:41.344Z,102809.84
2022-12-18T00:46:09.304Z,102814.84
2022-12-18T00:48:37.333Z,102810.66
2022-12-18T00:51:04.994Z,102810.78
2022-12-18T00:53:32.653Z,102811.59
2022-12-18T00:56:00.280Z,102823.03
2022-12-18T00:58:29.259Z,102819.78
2022-12-18T01:00:56.898Z,102819.94
2022-12-18T01:03:24.602Z,102815.56
2022-12-18T01:05:52.243Z,102815.03
2022-12-18T01:08:19.850Z,102796.94
2022-12-18T01:10:47.501Z,102797.88
2022-12-18T01:13:15.196Z,102797.75
2022-12-18T01:15:50.214Z,102806.72
2022-12-18T01:18:17.892Z,102806.63
2022-12-18T01:20:45.751Z,102814.38
2022-12-18T01:23:13.416Z,102812.47
2022-12-18T01:25:41.115Z,102815.19
2022-12-18T01:28:08.763Z,102829.22
2022-12-18T01:30:36.505Z,102824.72
2022-12-18T01:33:06.419Z,102830.72
2022-12-18T01:35:34.092Z,102829.22
2022-12-18T01:38:01.746Z,102827.44
2022-12-18T01:40:29.419Z,102835.19
2022-12-18T01:42:57.008Z,102832.59
2022-12-18T01:45:28.882Z,102834.50
2022-12-18T01:47:58.399Z,102835.50
2022-12-18T01:50:32.469Z,102831.53
2022-12-18T01:53:04.169Z,102832.66
2022-12-18T01:55:34.302Z,102834.53
2022-12-18T01:58:03.051Z,102826.41
2022-12-18T02:00:30.908Z,102825.44
2022-12-18T02:02:58.751Z,102831.84
2022-12-18T02:05:38.983Z,102836.47
2022-12-18T02:08:12.795Z,102831.59
2022-12-18T02:10:48.689Z,102834.47
2022-12-18T02:13:22.675Z,102836.22
2022-12-18T02:15:59.272Z,102832.03
2022-12-18T02:18:33.760Z,102830.22
2022-12-18T02:21:12.286Z,102830.53
2022-12-18T02:23:51.835Z,102842.75
2022-12-18T02:26:25.037Z,102830.13
2022-12-18T02:28:56.651Z,102841.28
2022-12-18T02:31:27.387Z,102843.88
2022-12-18T02:33:58.518Z,102844.13
2022-12-18T02:36:28.533Z,102844.13
2022-12-18T02:38:57.933Z,102843.31
2022-12-18T02:41:27.721Z,102833.78
2022-12-18T02:43:58.666Z,102838.13
2022-12-18T02:46:32.562Z,102832.16
2022-12-18T02:49:06.920Z,102815.03
2022-12-18T02:51:42.428Z,102812.44
2022-12-18T02:54:15.682Z,102811.78
2022-12-18T02:56:52.432Z,102822.22
2022-12-18T02:59:26.498Z,102812.88
2022-12-18T03:01:59.016Z,102813.81
2022-12-18T03:04:29.247Z,102811.38
2022-12-18T03:06:59.613Z,102809.88
2022-12-18T03:09:33.907Z,102805.78
2022-12-18T03:12:24.723Z,102793.81
2022-12-18T03:14:56.845Z,102788.94
2022-12-18T03:17:27.524Z,102801.97
2022-12-18T03:19:58.637Z,102799.41
2022-12-18T03:22:30.852Z,102790.16
2022-12-18T03:24:59.366Z,102795.31
2022-12-18T03:27:31.338Z,102779.97
2022-12-18T03:30:08.300Z,102783.63
2022-12-18T03:32:41.844Z,102782.81
2022-12-18T03:35:12.796Z,102785.53
2022-12-18T03:37:40.745Z,102772.06
2022-12-18T03:40:09.365Z,102780.22
2022-12-18T03:42:48.971Z,102760.81
2022-12-18T03:45:23.742Z,102760.81
2022-12-18T03:48:00.356Z,102766.22
2022-12-18T03:50:35.560Z,102768.28
2022-12-18T03:53:14.752Z,102764.22
2022-12-18T03:55:44.500Z,102763.53
2022-12-18T03:58:19.375Z,102765.31
2022-12-18T04:00:50.008Z,102763.66
2022-12-18T04:03:26.051Z,102764.63
2022-12-18T04:05:56.284Z,102762.44
2022-12-18T04:08:25.280Z,102750.78
2022-12-18T04:10:53.000Z,102756.88
2022-12-18T04:13:25.520Z,102753.47
2022-12-18T04:15:53.360Z,102751.31
2022-12-18T04:18:21.128Z,102741.13
2022-12-18T04:20:48.807Z,102733.50
2022-12-18T04:23:16.632Z,102731.88
2022-12-18T04:25:44.304Z,102731.31
2022-12-18T04:28:11.990Z,102737.44
2022-12-18T04:30:41.099Z,102728.31
2022-12-18T04:33:11.079Z,102733.63
2022-12-18T04:35:38.763Z,102734.88
2022-12-18T04:38:07.504Z,102739.34
2022-12-18T04:40:35.147Z,102735.28
2022-12-18T04:43:03.020Z,102734.84
2022-12-18T04:45:31.571Z,102739.34
2022-12-18T04:48:00.697Z,102747.19
2022-12-18T04:50:29.135Z,102758.34
2022-12-18T04:52:56.892Z,102764.19
2022-12-18T04:55:27.647Z,102762.28
2022-12-18T04:57:55.684Z,102767.19
2022-12-18T05:00:24.008Z,102767.19
2022-12-18T05:02:51.812Z,102772.47
2022-12-18T05:05:20.984Z,102774.25
2022-12-18T05:07:48.658Z,102774.09
2022-12-18T05:10:16.377Z,102786.22
2022-12-18T05:12:57.991Z,102791.38
2022-12-18T05:15:26.155Z,102781.84
2022-12-18T05:17:53.820Z,102787.97
2022-12-18T05:20:22.830Z,102792.44
2022-12-18T05:22:50.602Z,102795.03
2022-12-18T05:25:18.429Z,102790.81
2022-12-18T05:27:46.992Z,102792.56
2022-12-18T05:30:15.486Z,102799.50
2022-12-18T05:32:43.769Z,102814.03
2022-12-18T05:35:12.881Z,102812.13
2022-12-18T05:37:43.514Z,102807.78
2022-12-18T05:40:13.154Z,102812.94
2022-12-18T05:42:40.926Z,102806.03
2022-12-18T05:45:09.342Z,102791.38
2022-12-18T05:47:37.053Z,102788.09
2022-12-18T05:50:05.192Z,102779.66
2022-12-18T05:52:32.867Z,102780.63
2022-12-18T05:55:01.864Z,102776.53
2022-12-18T05:57:29.509Z,102776.66
2022-12-18T05:59:57.128Z,102770.72
2022-12-18T06:02:24.910Z,102770.81
2022-12-18T06:04:52.669Z,102768.25
2022-12-18T06:07:20.315Z,102766.63
2022-12-18T06:09:47.952Z,102768.38
2022-12-18T06:12:16.913Z,102760.66
2022-12-18T06:14:44.562Z,102763.22
2022-12-18T06:17:12.293Z,102756.56
2022-12-18T06:19:40.064Z,102753.03
2022-12-18T06:22:07.721Z,102751.41
2022-12-18T06:24:35.360Z,102751.41
2022-12-18T06:27:03.287Z,102741.22
2022-12-18T06:29:32.296Z,102749.91
2022-12-18T06:31:59.954Z,102744.75
2022-12-18T06:34:27.859Z,102737.25
2022-12-18T06:36:55.472Z,102735.66
2022-12-18T06:39:23.151Z,102737.53
2022-12-18T06:41:50.836Z,102734.28
2022-12-18T06:44:18.503Z,102729.38
2022-12-18T06:46:47.780Z,102727.63
2022-12-18T06:49:16.878Z,102723.25
2022-12-18T06:51:44.560Z,102713.91
2022-12-18T06:54:12.300Z,102710.50
2022-12-18T06:56:39.893Z,102711.34
2022-12-18T06:59:07.602Z,102707.09
2022-12-18T07:01:35.406Z,102709.84
2022-12-18T07:04:04.536Z,102704.81
2022-12-18T07:06:32.244Z,102699.78
2022-12-18T07:08:59.947Z,102694.50
2022-12-18T07:11:27.669Z,102708.34
2022-12-18T07:13:55.488Z,102698.94
2022-12-18T07:16:26.250Z,102697.34
2022-12-18T07:18:54.171Z,102685.69
2022-12-18T07:21:24.084Z,102689.06
2022-12-18T07:23:51.966Z,102697.34
2022-12-18T07:26:22.219Z,102689.03
2022-12-18T07:28:50.291Z,102692.59
2022-12-18T07:31:20.270Z,102684.19
2022-12-18T07:33:49.681Z,102682.53
2022-12-18T07:36:17.451Z,102673.19
2022-12-18T07:38:49.084Z,102666.25
2022-12-18T07:41:16.881Z,102673.19
2022-12-18T07:43:44.920Z,102668.03
2022-12-18T07:46:14.656Z,102660.28
2022-12-18T07:48:42.825Z,102655.81
2022-12-18T07:51:12.460Z,102654.84
2022-12-18T07:53:40.652Z,102653.91
2022-12-18T07:56:29.085Z,102642.53
2022-12-18T07:58:58.228Z,102638.03
2022-12-18T08:01:26.360Z,102644.69
2022-12-18T08:03:54.187Z,102646.03
2022-12-18T08:06:23.803Z,102643.19
2022-12-18T08:08:53.283Z,102637.75
2022-12-18T08:11:22.738Z,102620.22
2022-12-18T08:13:50.517Z,102614.66
2022-12-18T08:16:18.734Z,102621.31
2022-12-18T08:18:47.447Z,102620.91
2022-12-18T08:21:17.142Z,102630.00
2022-12-18T08:23:45.945Z,102628.78
2022-12-18T08:26:14.248Z,102625.66
2022-12-18T08:28:44.129Z,102639.78
2022-12-18T08:31:12.384Z,102643.72
2022-12-18T08:33:41.475Z,102658.78
2022-12-18T08:36:11.491Z,102663.53
2022-12-18T08:38:39.205Z,102656.88
2022-12-18T08:41:09.656Z,102652.25
2022-12-18T08:43:55.083Z,102658.09
2022-12-18T08:46:25.944Z,102641.34
2022-12-18T08:48:55.397Z,102639.19
2022-12-18T08:51:23.217Z,102641.50
2022-12-18T08:53:50.859Z,102642.69
2022-12-18T08:56:18.679Z,102638.72
2022-12-18T08:58:46.361Z,102632.06
2022-12-18T09:01:15.176Z,102633.94
2022-12-18T09:03:44.705Z,102653.09
2022-12-18T09:06:16.641Z,102658.50
2022-12-18T09:08:44.741Z,102651.13
2022-12-18T09:11:16.800Z,102641.72
2022-12-18T09:13:44.503Z,102636.50
2022-12-18T09:16:12.188Z,102639.19
2022-12-18T09:18:40.167Z,102639.25
2022-12-18T09:21:14.014Z,102634.47
2022-12-18T09:23:42.300Z,102632.94
2022-12-18T09:26:10.228Z,102634.13
2022-12-18T09:28:38.328Z,102635.31
2022-12-18T09:31:08.862Z,102643.44
2022-12-18T09:33:37.044Z,102642.88
2022-12-18T09:36:07.592Z,102631.94
2022-12-18T09:38:37.606Z,102620.31
2022-12-18T09:41:19.997Z,102610.19
2022-12-18T09:43:52.206Z,102609.44
2022-12-18T09:46:28.171Z,102605.47
2022-12-18T09:49:01.619Z,102612.47
2022-12-18T09:51:32.217Z,102610.09
2022-12-18T09:54:04.473Z,102603.34
2022-12-18T09:56:37.620Z,102583.38
2022-12-18T09:59:06.589Z,102595.25
2022-12-18T10:01:43.096Z,102593.50
2022-12-18T10:04:12.482Z,102594.38
2022-12-18T10:06:48.276Z,102588.28
2022-12-18T10:09:29.285Z,102592.81
2022-12-18T10:12:06.387Z,102582.50
2022-12-18T10:14:52.181Z,102591.13
2022-12-18T10:17:27.235Z,102580.94
2022-12-18T10:19:59.965Z,102573.38
2022-12-18T10:22:41.304Z,102576.94
2022-12-18T10:25:19.658Z,102580.69
2022-12-18T10:27:47.429Z,102585.56
2022-12-18T10:30:22.976Z,102588.50
2022-12-18T10:32:50.533Z,102581.06
2022-12-18T10:35:22.483Z,102577.16
2022-12-18T10:38:08.972Z,102560.31
2022-12-18T10:40:51.574Z,102566.16
2022-12-18T10:43:23.971Z,102575.25
2022-12-18T10:46:16.640Z,102566.16
2022-12-18T10:48:54.791Z,102551.75
2022-12-18T10:51:25.409Z,102552.41
2022-12-18T10:53:57.833Z,102546.72
2022-12-18T10:56:29.926Z,102549.66
2022-12-18T10:59:00.507Z,102542.16
2022-12-18T11:01:29.371Z,102544.13
2022-12-18T11:04:10.504Z,102542.81
2022-12-18T11:06:55.900Z,102531.13
2022-12-18T11:09:25.157Z,102527.25
2022-12-18T11:11:55.688Z,102518.34
2022-12-18T11:14:25.325Z,102511.66
2022-12-18T11:17:25.360Z,102515.41
2022-12-18T11:19:45.342Z,102514.09
2022-12-18T11:22:22.345Z,102508.38
2022-12-18T11:25:30.365Z,102496.72
2022-12-18T11:27:54.587Z,102487.59
2022-12-18T11:30:27.680Z,102485.47
2022-12-18T11:32:59.637Z,102490.16
2022-12-18T11:35:40.043Z,102491.13
2022-12-18T11:38:19.384Z,102498.25
2022-12-18T11:40:53.736Z,102497.56
2022-12-18T11:43:29.783Z,102496.44
2022-12-18T11:46:08.265Z,102494.31
2022-12-18T11:48:47.241Z,102490.22
2022-12-18T11:51:27.053Z,102485.66
2022-12-18T11:53:54.996Z,102480.94
2022-12-18T11:56:33.909Z,102476.06
2022-12-18T11:59:17.994Z,102468.72
2022-12-18T12:01:52.937Z,102458.94
2022-12-18T12:05:03.191Z,102457.16
2022-12-18T12:07:44.729Z,102461.22
2022-12-18T12:10:25.292Z,102444.81
2022-12-18T12:13:11.655Z,102435.03
2022-12-18T12:15:52.406Z,102441.53
2022-12-18T12:18:31.118Z,102435.34
2022-12-18T12:21:09.322Z,102428.84
2022-12-18T12:23:43.754Z,102423.25
2022-12-18T12:26:17.364Z,102421.28
2022-12-18T12:29:09.162Z,102414.78
2022-12-18T12:32:02.851Z,102418.66
2022-12-18T12:34:39.013Z,102413.28
2022-12-18T12:37:19.534Z,102413.91
2022-12-18T12:39:49.209Z,102406.75
2022-12-18T12:42:39.475Z,102399.59
2022-12-18T12:45:16.280Z,102395.19
2022-12-18T12:47:47.884Z,102382.00
2022-12-18T12:50:19.565Z,102379.22
2022-12-18T12:52:49.559Z,102377.25
2022-12-18T12:55:21.384Z,102379.50
2022-12-18T12:57:59.863Z,102369.72
2022-12-18T13:00:33.313Z,102366.97
2022-12-18T13:03:10.437Z,102371.19
2022-12-18T13:05:46.104Z,102367.22
2022-12-18T13:08:26.376Z,102369.69
2022-12-18T13:11:16.991Z,102371.13
2022-12-18T13:13:51.438Z,102376.13
2022-12-18T13:16:21.992Z,102378.38
2022-12-18T13:18:53.388Z,102380.81
2022-12-18T13:21:25.623Z,102372.84
2022-12-18T13:23:53.528Z,102376.84
2022-12-18T13:26:35.510Z,102372.31
2022-12-18T13:29:07.094Z,102368.25
2022-12-18T13:32:15.831Z,102362.06
2022-12-18T13:34:48.751Z,102358.13
2022-12-18T13:37:52.937Z,102353.72
2022-12-18T13:40:56.347Z,102352.56
2022-12-18T13:43:40.411Z,102342.97
2022-12-18T13:46:23.697Z,102347.00
2022-12-18T13:48:55.784Z,102334.81
2022-12-18T13:51:26.895Z,102327.81
2022-12-18T13:53:59.475Z,102326.00
2022-12-18T13:56:29.541Z,102318.19
2022-12-18T13:59:15.475Z,102316.59
2022-12-18T14:01:49.274Z,102323.22
2022-12-18T14:04:30.498Z,102320.63
2022-12-18T14:07:03.757Z,102317.22
2022-12-18T14:09:33.948Z,102301.59
2022-12-18T14:12:19.711Z,102306.59
2022-12-18T14:14:49.836Z,102305.44
2022-12-18T14:17:21.342Z,102297.81
2022-12-18T14:19:52.061Z,102290.63
2022-12-18T14:22:23.008Z,102288.84
2022-12-18T14:25:10.641Z,102288.84
2022-12-18T14:27:40.064Z,102287.69
2022-12-18T14:30:26.760Z,102272.84
2022-12-18T14:33:02.665Z,102268.44
2022-12-18T14:35:30.670Z,102258.66
2022-12-18T14:38:23.300Z,102269.06
2022-12-18T14:40:55.565Z,102272.69
2022-12-18T14:43:23.836Z,102260.63
2022-12-18T14:45:52.604Z,102264.25
2022-12-18T14:48:23.350Z,102264.25
2022-12-18T14:51:00.632Z,102253.84
2022-12-18T14:53:41.973Z,102244.41
2022-12-18T14:56:19.584Z,102247.63
2022-12-18T14:59:09.631Z,102248.00
2022-12-18T15:01:39.827Z,102248.00
2022-12-18T15:04:27.363Z,102243.97
2022-12-18T15:07:06.516Z,102244.13
2022-12-18T15:09:35.575Z,102242.53
2022-12-18T15:12:03.796Z,102238.91
2022-12-18T15:14:42.068Z,102238.09
2022-12-18T15:17:19.959Z,102230.50
2022-12-18T15:19:49.908Z,102235.69
2022-12-18T15:22:28.218Z,102240.91
2022-12-18T15:24:58.667Z,102238.31
2022-12-18T15:27:30.299Z,102241.91
2022-12-18T15:30:24.040Z,102235.69
2022-12-18T15:32:52.783Z,102232.91
2022-12-18T15:35:23.182Z,102232.13
2022-12-18T15:37:51.839Z,102237.31
2022-12-18T15:40:23.197Z,102237.31
2022-12-18T15:43:10.740Z,102237.31
2022-12-18T15:45:38.359Z,102243.31
2022-12-18T15:48:17.694Z,102245.13
2022-12-18T15:50:45.379Z,102235.34
2022-12-18T15:53:13.060Z,102235.69
2022-12-18T15:56:01.304Z,102216.50
2022-12-18T15:58:29.501Z,102215.69
2022-12-18T16:01:00.489Z,102206.09
2022-12-18T16:03:28.517Z,102207.69
2022-12-18T16:05:56.224Z,102211.28
2022-12-18T16:08:24.639Z,102188.84
2022-12-18T16:10:53.649Z,102200.44
2022-12-18T16:13:22.209Z,102188.41
2022-12-18T16:15:49.965Z,102181.38
2022-12-18T16:18:17.632Z,102182.41
2022-12-18T16:20:45.312Z,102177.19
2022-12-18T16:23:12.968Z,102173.59
2022-12-18T16:25:40.644Z,102166.78
2022-12-18T16:28:09.630Z,102169.38
2022-12-18T16:30:38.625Z,102157.97
2022-12-18T16:33:07.708Z,102156.38
2022-12-18T16:35:38.111Z,102151.97
2022-12-18T16:38:05.864Z,102142.34
2022-12-18T16:40:34.340Z,102142.00
2022-12-18T16:43:02.004Z,102138.41
2022-12-18T16:45:34.105Z,102138.41
2022-12-18T16:48:01.912Z,102131.59
2022-12-18T16:50:29.519Z,102138.56
2022-12-18T16:52:57.127Z,102129.97
2022-12-18T16:55:24.772Z,102139.19
2022-12-18T16:57:52.596Z,102130.22
2022-12-18T17:00:20.667Z,102135.25
2022-12-18T17:02:49.809Z,102125.00
2022-12-18T17:05:17.704Z,102132.66
2022-12-18T17:07:45.364Z,102132.81
2022-12-18T17:10:13.132Z,102126.63
2022-12-18T17:12:40.795Z,102125.66
2022-12-18T17:15:10.082Z,102141.28
2022-12-18T17:17:37.749Z,102132.47
2022-12-18T17:20:07.306Z,102138.47
2022-12-18T17:22:34.949Z,102133.28
2022-12-18T17:25:02.651Z,102134.88
2022-12-18T17:27:30.260Z,102132.25
2022-12-18T17:29:58.182Z,102121.69
2022-12-18T17:32:25.881Z,102125.88
2022-12-18T17:34:53.501Z,102117.47
2022-12-18T17:37:22.487Z,102127.25
2022-12-18T17:39:50.195Z,102134.09
2022-12-18T17:42:17.846Z,102132.09
2022-12-18T17:44:45.993Z,102130.47
2022-12-18T17:47:14.158Z,102118.47
2022-12-18T17:49:41.895Z,102129.66
2022-12-18T17:52:09.675Z,102135.69
2022-12-18T17:54:41.327Z,102132.09
2022-12-18T17:57:09.072Z,102127.88
2022-12-18T17:59:36.789Z,102120.06
2022-12-18T18:02:04.512Z,102120.06
2022-12-18T18:04:32.469Z,102118.06
2022-12-18T18:07:00.164Z,102112.88
2022-12-18T18:09:27.947Z,102125.09
2022-12-18T18:12:14.527Z,102126.69
2022-12-18T18:14:42.200Z,102124.09
2022-12-18T18:17:09.892Z,102126.53
2022-12-18T18:19:37.592Z,102121.13
2022-12-18T18:22:07.045Z,102125.31
2022-12-18T18:24:34.820Z,102124.53
2022-12-18T18:27:03.908Z,102118.31
2022-12-18T18:29:31.571Z,102119.75
2022-12-18T18:31:59.544Z,102116.97
2022-12-18T18:34:29.639Z,102124.59
2022-12-18T18:36:57.312Z,102115.00
2022-12-18T18:39:25.325Z,102114.00
2022-12-18T18:41:53.097Z,102107.81
2022-12-18T18:44:25.739Z,102113.00
2022-12-18T18:46:55.095Z,102117.06
2022-12-18T18:49:24.121Z,102109.84
2022-12-18T18:51:52.052Z,102115.88
2022-12-18T18:54:19.644Z,102107.88
2022-12-18T18:59:36.552Z,102100.66
2022-12-18T19:02:05.065Z,102096.88
2022-12-18T19:04:33.531Z,102092.91
2022-12-18T19:07:01.291Z,102095.34
2022-12-18T19:09:29.410Z,102094.16
2022-12-18T19:12:14.780Z,102090.56
2022-12-18T19:14:43.847Z,102090.38
2022-12-18T19:17:11.611Z,102096.00
2022-12-18T19:19:39.971Z,102090.44
2022-12-18T19:22:09.327Z,102096.06
2022-12-18T19:24:37.100Z,102085.63
2022-12-18T19:27:04.945Z,102088.84
2022-12-18T19:29:33.056Z,102087.88
2022-12-18T19:32:02.539Z,102085.06
2022-12-18T19:34:30.289Z,102089.28
2022-12-18T19:36:59.755Z,102089.28
2022-12-18T19:39:28.044Z,102100.13
2022-12-18T19:41:55.853Z,102088.53
2022-12-18T19:44:23.541Z,102100.38
2022-12-18T19:46:51.782Z,102104.59
2022-12-18T19:49:20.813Z,102090.19
2022-12-18T19:51:50.185Z,102098.63
2022-12-18T19:54:18.250Z,102092.59
2022-12-18T19:56:46.732Z,102087.22
2022-12-18T19:59:14.991Z,102090.63
2022-12-18T20:01:43.203Z,102090.19
2022-12-18T20:04:11.136Z,102080.97
2022-12-18T20:06:49.341Z,102084.34
2022-12-18T20:09:17.454Z,102082.28
2022-12-18T20:11:45.515Z,102086.25
2022-12-18T20:14:16.869Z,102090.44
2022-12-18T20:16:51.545Z,102084.97
2022-12-18T20:19:19.543Z,102095.97
2022-12-18T20:21:48.663Z,102085.09
2022-12-18T20:24:16.320Z,102089.06
2022-12-18T20:26:44.008Z,102084.22
2022-12-18T20:29:11.696Z,102092.25
2022-12-18T20:31:39.367Z,102098.63
2022-12-18T20:34:07.223Z,102090.19
2022-12-18T20:36:37.535Z,102090.56
2022-12-18T20:39:08.922Z,102092.53
2022-12-18T20:41:39.135Z,102081.50
2022-12-18T20:44:17.742Z,102073.25
2022-12-18T20:46:51.460Z,102076.06
2022-12-18T20:49:19.128Z,102067.84
2022-12-18T20:51:46.767Z,102068.38
2022-12-18T20:54:15.784Z,102066.75
2022-12-18T20:56:43.409Z,102068.75
2022-12-18T20:59:11.323Z,102063.72
2022-12-18T21:01:47.564Z,102061.50
2022-12-18T21:04:18.703Z,102065.28
2022-12-18T21:06:51.443Z,102049.03
2022-12-18T21:09:22.271Z,102042.81
2022-12-18T21:12:07.365Z,102033.44
2022-12-18T21:14:35.293Z,102031.00
2022-12-18T21:17:03.028Z,102027.41
2022-12-18T21:19:30.783Z,102027.41
2022-12-18T21:21:59.183Z,102028.22
2022-12-18T21:24:28.227Z,102021.38
2022-12-18T21:27:00.467Z,102023.00
2022-12-18T21:29:28.100Z,102023.78
2022-12-18T21:31:55.941Z,102019.41
2022-12-18T21:34:26.755Z,102015.22
2022-12-18T21:36:55.730Z,102006.59
2022-12-18T21:39:23.567Z,102006.38
2022-12-18T21:42:10.872Z,102001.03
2022-12-18T21:44:42.011Z,102003.44
2022-12-18T21:47:21.742Z,102008.63
2022-12-18T21:49:51.094Z,102001.44
2022-12-18T21:52:18.788Z,101997.03
2022-12-18T21:54:46.457Z,102001.06
2022-12-18T21:57:15.536Z,102000.72
2022-12-18T21:59:44.278Z,101984.88
2022-12-18T22:02:13.845Z,101961.25
2022-12-18T22:04:41.989Z,101975.91
2022-12-18T22:07:09.862Z,101972.28
2022-12-18T22:09:38.951Z,101958.50
2022-12-18T22:12:08.968Z,101956.50
2022-12-18T22:14:38.319Z,101964.31
2022-12-18T22:17:06.016Z,101951.09
2022-12-18T22:19:41.089Z,101956.31
2022-12-18T22:22:10.464Z,101943.28
2022-12-18T22:24:38.101Z,101946.50
2022-12-18T22:27:05.789Z,101933.47
2022-12-18T22:29:52.825Z,101916.25
2022-12-18T22:32:30.713Z,101912.47
2022-12-18T22:35:05.248Z,101909.69
2022-12-18T22:37:34.779Z,101886.84
2022-12-18T22:40:03.058Z,101882.47
2022-12-18T22:42:31.137Z,101878.84
2022-12-18T22:45:00.332Z,101866.63
2022-12-18T22:47:30.588Z,101869.06
2022-12-18T22:49:58.691Z,101861.06
2022-12-18T22:52:26.377Z,101863.28
2022-12-18T22:54:54.439Z,101857.88
2022-12-18T22:57:22.612Z,101862.88
2022-12-18T22:59:50.555Z,101866.28
2022-12-18T23:02:18.883Z,101869.50
2022-12-18T23:04:48.570Z,101870.09
2022-12-18T23:07:16.593Z,101872.34
2022-12-18T23:09:44.836Z,101850.31
2022-12-18T23:12:17.095Z,101833.06
2022-12-18T23:14:45.282Z,101827.84
2022-12-18T23:17:12.928Z,101815.47
2022-12-18T23:19:45.509Z,101814.06
2022-12-18T23:22:17.757Z,101821.06
2022-12-18T23:24:45.435Z,101833.91
2022-12-18T23:27:13.110Z,101830.31
2022-12-18T23:29:40.778Z,101831.94
2022-12-18T23:32:08.973Z,101824.91
2022-12-18T23:34:36.570Z,101818.50
2022-12-18T23:37:04.593Z,101820.13
2022-12-18T23:39:33.614Z,101807.50
2022-12-18T23:42:01.744Z,101793.69
2022-12-18T23:44:29.541Z,101786.84
2022-12-18T23:46:57.191Z,101771.81
2022-12-18T23:49:24.944Z,101764.00
2022-12-18T23:51:54.845Z,101772.25
2022-12-18T23:54:27.275Z,101770.41
2022-12-18T23:57:02.639Z,101781.66
2022-12-18T23:59:30.291Z,101783.28
